Time;durP1;ratioP1;P1;durP2;ratioP2;P2;SDS_P1;SDS_P2;PMS_P1;PMS_P2;Temp;Humidity;BMP_temperature;BMP_pressure;BME280_temperature;BME280_humidity;BME280_pressure;Samples;Min_cycle;Max_cycle;Signal;HPM_P1;HPM_P2
2022/11/03 00:01:36;;;;;;;5.73;1.90;;;8.70;99.90;;;;;;6217086;23;20230;-84
2022/11/03 00:04:04;;;;;;;18.83;2.50;;;8.80;99.90;;;;;;6190540;23;20230;-83
2022/11/03 00:06:29;;;;;;;7.03;2.43;;;8.70;99.90;;;;;;6217077;23;20172;-84
2022/11/03 00:09:00;;;;;;;17.00;2.80;;;8.70;99.90;;;;;;6190516;23;20194;-84
2022/11/03 00:11:26;;;;;;;7.87;2.43;;;8.70;99.90;;;;;;6190520;23;20228;-85
2022/11/03 00:13:52;;;;;;;11.93;2.47;;;8.80;99.90;;;;;;6216999;23;20168;-84
2022/11/03 00:16:17;;;;;;;8.50;2.57;;;8.80;99.90;;;;;;6190474;23;20645;-83
2022/11/03 00:18:43;;;;;;;9.57;2.40;;;8.90;99.90;;;;;;6190450;23;20183;-84
2022/11/03 00:21:11;;;;;;;12.53;2.80;;;8.90;99.90;;;;;;6190376;23;20249;-85
2022/11/03 00:23:39;;;;;;;8.67;2.53;;;9.00;99.90;;;;;;6190218;23;20156;-84
2022/11/03 00:26:16;;;;;;;10.73;2.90;;;9.30;99.90;;;;;;6190246;23;20246;-85
2022/11/03 00:28:44;;;;;;;11.07;2.50;;;9.00;99.90;;;;;;6190436;23;20168;-84
2022/11/03 00:31:24;;;;;;;9.00;2.83;;;9.00;99.90;;;;;;6190374;23;20556;-84
2022/11/03 00:33:50;;;;;;;7.23;2.90;;;9.00;99.90;;;;;;6190142;23;20183;-85
2022/11/03 00:36:30;;;;;;;12.60;3.27;;;9.20;99.90;;;;;;6190333;23;20658;-83
2022/11/03 00:38:55;;;;;;;7.90;3.30;;;9.00;99.90;;;;;;6190212;23;20194;-85
2022/11/03 00:41:23;;;;;;;13.33;3.10;;;9.00;99.90;;;;;;6190213;23;20580;-85
2022/11/03 00:43:49;;;;;;;8.83;3.20;;;9.00;99.90;;;;;;6190190;23;20170;-86
2022/11/03 00:46:16;;;;;;;9.77;3.43;;;9.10;99.90;;;;;;6191481;23;20166;-86
2022/11/03 00:48:42;;;;;;;12.57;3.50;;;9.10;99.90;;;;;;6190032;23;20173;-83
2022/11/03 00:51:26;;;;;;;11.07;3.63;;;9.10;99.90;;;;;;6189868;23;20235;-84
2022/11/03 00:53:59;;;;;;;10.20;3.40;;;9.10;99.90;;;;;;6189802;23;20207;-84
2022/11/03 00:56:26;;;;;;;13.90;4.10;;;9.10;99.90;;;;;;6189799;23;20580;-83
2022/11/03 00:58:53;;;;;;;11.57;3.97;;;9.70;99.90;;;;;;6189829;23;20626;-84
2022/11/03 01:01:24;;;;;;;10.57;3.73;;;9.10;99.90;;;;;;6216375;23;20234;-84
2022/11/03 01:06:48;;;;;;;12.17;4.10;;;9.40;99.90;;;;;;6216736;23;20633;-84
2022/11/03 01:09:33;;;;;;;10.67;4.10;;;9.10;99.90;;;;;;6189625;23;20144;-84
2022/11/03 01:12:04;;;;;;;10.17;3.70;;;9.10;99.90;;;;;;6189795;23;20252;-85
2022/11/03 01:14:36;;;;;;;12.60;3.50;;;9.00;99.90;;;;;;6189481;23;20185;-84
2022/11/03 01:17:05;;;;;;;11.67;3.43;;;9.10;99.90;;;;;;6189847;23;20152;-83
2022/11/03 01:19:30;;;;;;;9.97;3.07;;;9.00;99.90;;;;;;6189658;23;20242;-83
2022/11/03 01:21:56;;;;;;;10.70;3.77;;;9.00;99.90;;;;;;6189566;23;20197;-84
2022/11/03 01:24:21;;;;;;;13.47;3.47;;;9.50;99.90;;;;;;6189370;23;20185;-84
2022/11/03 01:26:48;;;;;;;14.90;3.17;;;9.00;99.90;;;;;;6189561;23;20228;-84
2022/11/03 01:29:13;;;;;;;14.50;3.87;;;9.00;99.90;;;;;;6189580;23;20164;-84
2022/11/03 01:31:39;;;;;;;9.93;2.70;;;9.00;99.90;;;;;;6189751;23;20160;-84
2022/11/03 01:34:04;;;;;;;7.43;2.90;;;8.90;99.90;;;;;;6189605;23;20620;-86
2022/11/03 01:36:30;;;;;;;9.77;2.67;;;9.60;99.90;;;;;;6189802;23;20200;-84
2022/11/03 01:38:56;;;;;;;7.50;2.30;;;8.90;99.90;;;;;;6189876;23;20210;-84
2022/11/03 01:41:25;;;;;;;10.33;2.93;;;8.90;99.90;;;;;;6216148;23;20232;-85
2022/11/03 01:44:10;;;;;;;7.07;2.70;;;8.90;99.90;;;;;;6189384;23;20240;-84
2022/11/03 01:47:08;;;;;;;6.60;2.43;;;9.00;99.90;;;;;;6189551;23;20182;-84
2022/11/03 01:49:47;;;;;;;11.27;2.77;;;9.00;99.90;;;;;;6164457;23;20618;-84
2022/11/03 01:52:24;;;;;;;14.50;3.13;;;9.00;99.90;;;;;;6189707;23;20152;-85
2022/11/03 01:55:07;;;;;;;8.90;2.47;;;9.00;99.90;;;;;;6189545;23;20514;-84
2022/11/03 01:57:39;;;;;;;13.13;2.10;;;9.00;99.90;;;;;;6189586;23;20284;-85
2022/11/03 02:00:05;;;;;;;8.73;2.10;;;9.00;99.90;;;;;;6216491;23;20269;-85
2022/11/03 02:02:31;;;;;;;7.23;2.00;;;9.00;99.90;;;;;;6189547;23;20160;-84
2022/11/03 02:05:01;;;;;;;9.17;2.13;;;9.00;99.90;;;;;;6189263;23;20182;-84
2022/11/03 02:07:31;;;;;;;11.80;2.50;;;9.20;99.90;;;;;;6189120;23;20208;-84
2022/11/03 02:09:57;;;;;;;6.70;1.87;;;9.30;99.90;;;;;;6189367;23;20141;-84
2022/11/03 02:12:23;;;;;;;12.73;2.73;;;9.50;99.90;;;;;;6215930;23;20182;-84
2022/11/03 02:14:55;;;;;;;12.07;2.37;;;9.40;99.90;;;;;;6189341;23;20229;-83
2022/11/03 02:17:23;;;;;;;8.97;2.10;;;9.40;99.90;;;;;;6216038;23;20224;-84
2022/11/03 02:19:51;;;;;;;6.87;1.80;;;9.40;99.90;;;;;;6189389;23;20556;-84
2022/11/03 02:22:36;;;;;;;10.97;2.50;;;9.40;99.90;;;;;;6189321;23;20251;-84
2022/11/03 02:25:14;;;;;;;8.47;2.30;;;9.40;99.90;;;;;;6189095;23;20193;-85
2022/11/03 02:27:40;;;;;;;10.33;2.10;;;9.40;99.90;;;;;;6191348;23;20176;-84
2022/11/03 02:30:06;;;;;;;6.37;1.87;;;9.40;99.90;;;;;;6191351;23;20163;-85
2022/11/03 02:32:39;;;;;;;7.83;2.40;;;9.40;99.90;;;;;;6191391;23;20160;-83
2022/11/03 02:35:12;;;;;;;7.03;2.10;;;10.70;99.90;;;;;;6191309;23;20176;-84
2022/11/03 02:37:43;;;;;;;9.00;1.83;;;9.40;99.90;;;;;;6191362;23;20152;-84
2022/11/03 02:40:13;;;;;;;7.33;1.90;;;9.50;99.90;;;;;;6217863;23;20148;-83
2022/11/03 02:42:41;;;;;;;11.67;2.50;;;9.50;99.90;;;;;;6191162;23;20164;-85
2022/11/03 02:45:10;;;;;;;9.37;1.97;;;9.50;99.90;;;;;;6191193;23;20187;-84
2022/11/03 02:47:38;;;;;;;14.10;2.37;;;9.50;99.90;;;;;;6191251;23;20181;-85
2022/11/03 02:50:07;;;;;;;10.83;2.10;;;9.50;99.90;;;;;;6191021;23;20156;-83
2022/11/03 02:52:34;;;;;;;6.97;2.07;;;9.50;99.90;;;;;;6191233;23;20156;-84
2022/11/03 02:55:22;;;;;;;7.37;1.73;;;9.30;99.90;;;;;;6192335;23;20182;-86
2022/11/03 02:58:04;;;;;;;12.70;2.57;;;9.50;99.90;;;;;;6191327;23;20158;-83
2022/11/03 03:00:36;;;;;;;11.00;2.47;;;9.60;99.90;;;;;;6190984;23;20153;-84
2022/11/03 03:03:15;;;;;;;10.00;2.00;;;9.60;99.90;;;;;;6191046;23;20157;-83
2022/11/03 03:05:44;;;;;;;16.80;3.60;;;9.60;99.90;;;;;;6190886;23;20223;-84
2022/11/03 03:08:11;;;;;;;9.57;1.97;;;9.60;99.90;;;;;;6190656;23;20175;-84
2022/11/03 03:10:41;;;;;;;9.20;2.27;;;9.60;99.90;;;;;;6190773;23;20243;-84
2022/11/03 03:13:09;;;;;;;10.57;2.23;;;9.60;99.90;;;;;;6190864;23;20599;-84
2022/11/03 03:16:04;;;;;;;9.43;2.07;;;9.70;99.90;;;;;;6190788;23;20179;-83
2022/11/03 03:18:48;;;;;;;10.30;1.70;;;9.50;99.90;;;;;;6217557;23;20142;-83
2022/11/03 03:21:22;;;;;;;8.83;1.67;;;9.50;99.90;;;;;;6190890;23;20149;-83
2022/11/03 03:23:56;;;;;;;7.77;2.23;;;9.50;99.90;;;;;;6217252;23;20150;-84
2022/11/03 03:26:33;;;;;;;8.80;1.90;;;9.50;99.90;;;;;;6190624;23;20191;-83
2022/11/03 03:29:19;;;;;;;11.70;2.50;;;9.60;99.90;;;;;;6191726;23;20178;-83
2022/11/03 03:31:52;;;;;;;14.03;2.23;;;9.50;99.90;;;;;;6189727;23;20217;-84
2022/11/03 03:34:20;;;;;;;9.97;2.53;;;9.50;99.90;;;;;;6190741;23;20180;-84
2022/11/03 03:36:48;;;;;;;12.73;1.93;;;9.90;99.90;;;;;;6190362;23;20153;-83
2022/11/03 03:39:15;;;;;;;6.27;1.80;;;9.50;99.90;;;;;;6190674;23;20186;-83
2022/11/03 03:41:42;;;;;;;9.40;2.10;;;9.50;99.90;;;;;;6190529;23;20165;-84
2022/11/03 03:44:09;;;;;;;13.97;2.20;;;9.50;99.90;;;;;;6190434;23;20417;-83
2022/11/03 03:46:39;;;;;;;9.37;2.20;;;9.50;99.90;;;;;;6190472;23;20269;-83
2022/11/03 03:49:06;;;;;;;4.67;1.67;;;9.50;99.90;;;;;;6190857;23;20152;-84
2022/11/03 03:51:33;;;;;;;13.40;2.90;;;10.10;99.90;;;;;;6190722;23;20160;-84
2022/11/03 03:53:59;;;;;;;9.00;2.23;;;9.80;99.90;;;;;;6190338;23;20214;-85
2022/11/03 03:56:30;;;;;;;12.27;2.27;;;10.30;99.90;;;;;;6191252;23;20160;-83
2022/11/03 03:58:56;;;;;;;8.70;2.27;;;9.60;99.90;;;;;;6190508;23;20148;-84
2022/11/03 04:01:21;;;;;;;9.33;2.47;;;9.60;99.90;;;;;;6190578;23;20167;-85
2022/11/03 04:03:47;;;;;;;6.37;2.27;;;9.70;99.90;;;;;;6190388;23;20187;-83
2022/11/03 04:06:12;;;;;;;8.10;3.10;;;9.70;99.90;;;;;;6190680;23;20163;-83
2022/11/03 04:08:38;;;;;;;5.53;2.10;;;10.00;99.90;;;;;;6190356;23;20242;-83
2022/11/03 04:22:15;;;;;;;13.00;2.60;;;9.70;99.90;;;;;;6217139;23;20199;-84
2022/11/03 04:24:41;;;;;;;10.17;2.33;;;9.70;99.90;;;;;;6189979;23;20237;-85
2022/11/03 04:27:15;;;;;;;6.23;2.40;;;9.60;99.90;;;;;;6188883;23;20204;-83
2022/11/03 04:29:41;;;;;;;6.87;2.17;;;9.60;99.90;;;;;;6188878;23;20155;-84
2022/11/03 04:32:14;;;;;;;8.57;2.30;;;9.60;99.90;;;;;;6189114;23;20163;-84
2022/11/03 04:34:41;;;;;;;12.20;2.80;;;9.60;99.90;;;;;;6188764;23;20735;-83
2022/11/03 04:37:11;;;;;;;10.80;3.03;;;9.60;99.90;;;;;;6189069;23;20165;-84
2022/11/03 04:39:37;;;;;;;9.13;2.17;;;9.70;99.90;;;;;;6188885;23;20160;-84
2022/11/03 04:42:20;;;;;;;12.47;3.33;;;9.80;99.90;;;;;;6188870;23;20199;-84
2022/11/03 04:44:46;;;;;;;10.90;3.20;;;9.70;99.90;;;;;;6188923;23;20630;-84
2022/11/03 04:47:13;;;;;;;10.97;2.37;;;9.80;99.90;;;;;;6188847;23;20188;-84
2022/11/03 04:49:39;;;;;;;10.93;2.30;;;9.80;99.90;;;;;;6188543;23;20168;-84
2022/11/03 04:52:20;;;;;;;7.93;2.40;;;9.90;99.90;;;;;;6188844;23;20156;-85
2022/11/03 04:54:48;;;;;;;10.57;2.70;;;9.90;99.90;;;;;;6188802;23;20176;-84
2022/11/03 04:57:15;;;;;;;10.87;2.43;;;9.90;99.90;;;;;;6189012;23;20164;-86
2022/11/03 04:59:43;;;;;;;6.83;2.43;;;10.00;99.90;;;;;;6215736;23;20159;-86
2022/11/03 05:02:13;;;;;;;8.03;2.50;;;9.90;99.90;;;;;;6215821;23;20158;-88
2022/11/03 05:04:39;;;;;;;8.23;2.30;;;10.30;99.90;;;;;;6189097;23;20531;-89
2022/11/03 05:07:32;;;;;;;8.97;2.30;;;10.20;99.90;;;;;;6189801;23;20191;-87
2022/11/03 05:09:58;;;;;;;7.33;2.00;;;10.00;99.90;;;;;;6188786;23;20140;-88
2022/11/03 05:12:24;;;;;;;10.17;2.63;;;10.30;99.90;;;;;;6188833;23;20145;-87
2022/11/03 05:14:50;;;;;;;9.20;2.47;;;10.00;99.90;;;;;;6188640;23;20214;-87
2022/11/03 05:17:24;;;;;;;9.20;2.60;;;10.00;99.90;;;;;;6188703;23;20160;-86
2022/11/03 05:19:58;;;;;;;11.83;2.87;;;10.00;99.90;;;;;;6188845;23;20236;-87
2022/11/03 05:22:29;;;;;;;11.07;2.70;;;10.00;99.90;;;;;;6215338;23;20144;-84
2022/11/03 05:25:07;;;;;;;13.97;2.70;;;10.10;99.90;;;;;;6143186;23;1067232;-85
2022/11/03 05:27:32;;;;;;;11.40;2.60;;;10.10;99.90;;;;;;6189759;23;20186;-84
2022/11/03 05:29:59;;;;;;;8.60;1.93;;;10.20;99.90;;;;;;6189783;23;20158;-84
2022/11/03 05:32:28;;;;;;;12.03;2.80;;;10.30;99.90;;;;;;6189766;23;20183;-85
2022/11/03 05:34:55;;;;;;;11.57;2.83;;;10.30;99.90;;;;;;6189532;23;20172;-85
2022/11/03 05:37:28;;;;;;;8.07;2.40;;;10.30;99.90;;;;;;6189823;23;20165;-85
2022/11/03 05:40:03;;;;;;;11.07;2.57;;;10.30;99.90;;;;;;6190363;23;20172;-84
2022/11/03 05:42:41;;;;;;;11.10;2.30;;;10.30;99.90;;;;;;6216455;23;20641;-84
2022/11/03 05:45:31;;;;;;;7.93;2.13;;;10.30;99.90;;;;;;6189731;23;20680;-86
2022/11/03 05:47:57;;;;;;;8.00;1.83;;;10.30;99.90;;;;;;6189653;23;20183;-86
2022/11/03 05:50:24;;;;;;;11.30;2.33;;;10.30;99.90;;;;;;6216095;23;20150;-85
2022/11/03 05:52:55;;;;;;;12.10;2.30;;;10.30;99.90;;;;;;6189691;23;20163;-83
2022/11/03 05:55:28;;;;;;;6.97;2.50;;;10.30;99.90;;;;;;6189537;23;20172;-85
2022/11/03 05:57:56;;;;;;;14.20;2.53;;;10.30;99.90;;;;;;6189631;23;20232;-85
2022/11/03 06:00:31;;;;;;;12.37;2.93;;;10.30;99.90;;;;;;6189684;23;20215;-84
2022/11/03 06:02:58;;;;;;;8.17;2.20;;;10.30;99.90;;;;;;6191726;23;20661;-83
2022/11/03 06:05:25;;;;;;;11.23;2.30;;;10.30;99.90;;;;;;6191199;23;20519;-86
2022/11/03 06:07:54;;;;;;;11.37;2.87;;;10.30;99.90;;;;;;6189766;23;20192;-86
2022/11/03 06:10:28;;;;;;;11.53;2.30;;;10.20;99.90;;;;;;6190085;23;20237;-86
2022/11/03 06:12:58;;;;;;;11.03;2.40;;;10.20;99.90;;;;;;6189763;23;20152;-88
2022/11/03 06:15:29;;;;;;;12.17;2.30;;;10.20;99.90;;;;;;6189856;23;20617;-87
2022/11/03 06:17:56;;;;;;;12.17;2.47;;;10.20;99.90;;;;;;6189761;23;20229;-87
2022/11/03 06:20:22;;;;;;;10.07;2.40;;;10.10;99.90;;;;;;6189691;23;20173;-87
2022/11/03 06:22:49;;;;;;;10.53;2.47;;;10.10;99.90;;;;;;6189720;23;20161;-86
2022/11/03 06:25:24;;;;;;;5.67;2.00;;;10.10;99.90;;;;;;6189531;23;20630;-86
2022/11/03 06:27:50;;;;;;;5.43;2.40;;;10.00;99.90;;;;;;6189944;23;20630;-85
2022/11/03 06:30:29;;;;;;;12.00;2.40;;;10.00;99.90;;;;;;6189825;23;20624;-88
2022/11/03 06:32:59;;;;;;;12.70;1.90;;;10.00;99.90;;;;;;6189850;23;20154;-87
2022/11/03 06:35:25;;;;;;;7.53;2.30;;;10.00;99.90;;;;;;6189692;23;20172;-87
2022/11/03 06:37:51;;;;;;;8.83;1.93;;;10.00;99.90;;;;;;6216338;23;20193;-87
2022/11/03 06:40:16;;;;;;;7.53;1.70;;;10.00;99.90;;;;;;6189934;23;20161;-87
2022/11/03 06:42:42;;;;;;;9.40;3.17;;;10.00;99.90;;;;;;6189936;23;20157;-88
2022/11/03 06:45:13;;;;;;;11.80;2.23;;;10.90;99.90;;;;;;6189877;23;20629;-87
2022/11/03 06:47:40;;;;;;;9.83;2.60;;;10.10;99.90;;;;;;6189850;23;20180;-88
2022/11/03 06:50:36;;;;;;;8.13;2.13;;;10.10;99.90;;;;;;6189727;23;20210;-88
2022/11/03 06:53:02;;;;;;;8.00;2.63;;;10.20;99.90;;;;;;6159433;23;20616;-88
2022/11/03 06:55:32;;;;;;;7.80;2.27;;;10.30;99.90;;;;;;6189845;23;20176;-88
2022/11/03 06:58:03;;;;;;;9.17;2.60;;;10.20;99.90;;;;;;6189971;23;20607;-89
2022/11/03 07:00:30;;;;;;;13.43;2.70;;;10.20;99.90;;;;;;6189893;23;20157;-88
2022/11/03 07:03:19;;;;;;;7.80;2.20;;;10.20;99.90;;;;;;6189918;23;20171;-86
2022/11/03 07:05:45;;;;;;;7.83;2.90;;;10.30;99.90;;;;;;6189717;23;20501;-88
2022/11/03 07:08:38;;;;;;;8.27;2.23;;;10.30;99.90;;;;;;6189882;23;20268;-87
2022/11/03 07:11:25;;;;;;;11.07;2.70;;;10.30;99.90;;;;;;6189914;23;20187;-89
2022/11/03 07:13:55;;;;;;;8.27;2.47;;;10.40;99.90;;;;;;6191930;23;20181;-87
2022/11/03 07:16:32;;;;;;;9.50;1.93;;;10.40;99.90;;;;;;6219122;23;20202;-88
2022/11/03 07:19:04;;;;;;;9.77;2.57;;;10.40;99.90;;;;;;6196971;23;20148;-86
2022/11/03 07:21:40;;;;;;;15.17;2.43;;;10.50;99.90;;;;;;6193259;23;20170;-87
2022/11/03 07:24:14;;;;;;;6.23;1.83;;;10.50;99.90;;;;;;6191076;23;20178;-87
2022/11/03 07:26:40;;;;;;;6.10;2.30;;;11.40;99.90;;;;;;6191016;23;20155;-88
2022/11/03 07:29:22;;;;;;;8.17;1.90;;;10.50;99.90;;;;;;6191074;23;20170;-86
2022/11/03 07:31:50;;;;;;;7.60;1.70;;;10.60;99.90;;;;;;6190864;23;20152;-86
2022/11/03 07:34:21;;;;;;;9.97;2.33;;;10.70;99.90;;;;;;6190758;23;20183;-87
2022/11/03 07:36:47;;;;;;;10.40;2.83;;;10.70;99.90;;;;;;6191028;23;20151;-87
2022/11/03 07:39:18;;;;;;;4.43;2.07;;;10.80;99.90;;;;;;6190759;23;20165;-87
2022/11/03 07:41:44;;;;;;;5.83;2.03;;;10.90;99.90;;;;;;6190964;23;20151;-86
2022/11/03 07:44:15;;;;;;;10.80;2.30;;;10.90;99.90;;;;;;6190775;23;20187;-88
2022/11/03 07:46:42;;;;;;;10.87;2.40;;;10.90;99.90;;;;;;6190842;23;20149;-88
2022/11/03 07:49:18;;;;;;;10.70;2.30;;;11.10;99.90;;;;;;6191089;23;20161;-87
2022/11/03 07:51:44;;;;;;;11.53;2.60;;;11.60;99.90;;;;;;6190739;23;20204;-86
2022/11/03 07:54:22;;;;;;;5.30;1.97;;;11.10;99.90;;;;;;6190638;23;20561;-87
2022/11/03 07:56:55;;;;;;;7.07;2.00;;;11.10;99.90;;;;;;6190685;23;20164;-87
2022/11/03 07:59:37;;;;;;;7.00;2.07;;;11.00;99.90;;;;;;6190762;23;20641;-87
2022/11/03 08:02:27;;;;;;;8.03;2.13;;;11.10;99.90;;;;;;6190786;23;20156;-87
2022/11/03 08:04:53;;;;;;;6.20;2.07;;;11.20;99.90;;;;;;6190480;23;20256;-86
2022/11/03 08:07:18;;;;;;;9.37;2.60;;;11.40;99.90;;;;;;6190689;23;20557;-87
2022/11/03 08:09:44;;;;;;;8.20;2.07;;;11.20;99.90;;;;;;6190562;23;20170;-85
2022/11/03 08:12:10;;;;;;;5.83;1.90;;;11.30;99.90;;;;;;6190565;23;20484;-88
2022/11/03 08:14:36;;;;;;;8.73;2.30;;;11.30;99.90;;;;;;6217044;23;20217;-88
2022/11/03 08:17:02;;;;;;;7.40;2.07;;;11.40;99.90;;;;;;6190768;23;20606;-86
2022/11/03 08:19:28;;;;;;;11.37;2.93;;;11.50;99.90;;;;;;6217282;23;20154;-87
2022/11/03 08:21:54;;;;;;;12.80;2.50;;;11.50;99.90;;;;;;6190592;23;20164;-87
2022/11/03 08:24:19;;;;;;;7.40;2.23;;;11.50;99.90;;;;;;6189855;23;20229;-86
2022/11/03 08:26:45;;;;;;;9.30;2.80;;;11.60;99.90;;;;;;6190457;23;20175;-88
2022/11/03 08:29:11;;;;;;;7.17;2.10;;;11.60;99.90;;;;;;6190637;23;20160;-85
2022/11/03 08:31:36;;;;;;;7.80;1.90;;;11.60;99.90;;;;;;6190595;23;20162;-87
2022/11/03 08:34:02;;;;;;;14.13;2.33;;;12.70;99.90;;;;;;6190290;23;20277;-89
2022/11/03 08:36:27;;;;;;;4.73;1.93;;;12.10;99.90;;;;;;6190359;23;20625;-87
2022/11/03 08:38:53;;;;;;;8.27;1.97;;;11.70;99.90;;;;;;6190282;23;20614;-89
2022/11/03 08:41:18;;;;;;;7.53;2.50;;;11.70;99.90;;;;;;6190365;23;20240;-87
2022/11/03 08:43:44;;;;;;;6.80;1.97;;;12.00;99.90;;;;;;6190301;23;20159;-88
2022/11/03 08:46:09;;;;;;;7.17;2.33;;;12.10;99.90;;;;;;6190579;23;20471;-86
2022/11/03 08:48:35;;;;;;;9.60;2.50;;;11.80;99.90;;;;;;6190345;23;20532;-85
2022/11/03 08:51:00;;;;;;;10.03;2.43;;;11.90;99.90;;;;;;6190299;23;20163;-87
2022/11/03 08:53:26;;;;;;;7.97;2.03;;;12.40;99.90;;;;;;6216779;23;20205;-87
2022/11/03 08:55:53;;;;;;;8.07;2.43;;;12.20;99.90;;;;;;6190065;23;20180;-84
2022/11/03 08:58:19;;;;;;;8.37;1.80;;;12.00;99.90;;;;;;6190180;23;20170;-87
2022/11/03 09:00:44;;;;;;;6.70;1.93;;;12.10;99.90;;;;;;6190148;23;20221;-88
2022/11/03 09:03:10;;;;;;;7.50;2.00;;;12.20;99.90;;;;;;6190195;23;20156;-86
2022/11/03 09:05:36;;;;;;;5.80;2.00;;;12.20;99.90;;;;;;6190173;23;20184;-85
2022/11/03 09:08:01;;;;;;;10.07;2.20;;;12.20;99.90;;;;;;6190014;23;20295;-87
2022/11/03 09:10:27;;;;;;;9.73;2.00;;;12.30;99.90;;;;;;6190202;23;20148;-87
2022/11/03 09:12:53;;;;;;;6.50;2.03;;;12.30;99.90;;;;;;6190198;23;20164;-85
2022/11/03 09:15:19;;;;;;;6.30;1.87;;;12.40;99.90;;;;;;6190167;23;20215;-87
2022/11/03 09:17:44;;;;;;;4.47;1.87;;;12.40;99.90;;;;;;6190177;23;20625;-86
2022/11/03 09:20:10;;;;;;;5.53;1.93;;;12.50;99.90;;;;;;6190121;23;20507;-87
2022/11/03 09:22:36;;;;;;;8.83;2.50;;;12.60;99.90;;;;;;6190130;23;20610;-88
2022/11/03 09:25:03;;;;;;;8.97;2.07;;;13.20;99.90;;;;;;6190217;23;20200;-84
2022/11/03 09:27:29;;;;;;;8.30;1.90;;;12.70;99.90;;;;;;6190030;23;20184;-85
2022/11/03 09:29:54;;;;;;;4.20;1.40;;;12.80;99.90;;;;;;6189992;23;20172;-87
2022/11/03 09:32:20;;;;;;;6.43;1.80;;;13.20;99.90;;;;;;6190050;23;20626;-88
2022/11/03 09:34:46;;;;;;;10.60;2.00;;;12.90;99.90;;;;;;6190254;23;20176;-86
2022/11/03 09:37:11;;;;;;;8.03;2.33;;;12.90;99.90;;;;;;6190093;23;20172;-88
2022/11/03 09:39:37;;;;;;;6.20;2.10;;;13.00;99.90;;;;;;6190303;23;20156;-87
2022/11/03 09:42:04;;;;;;;6.77;2.30;;;13.00;99.90;;;;;;6191841;23;20570;-87
2022/11/03 09:44:34;;;;;;;5.97;2.03;;;13.10;99.90;;;;;;6193453;23;20526;-88
2022/11/03 09:47:00;;;;;;;8.60;2.37;;;13.00;99.90;;;;;;6190028;23;20690;-87
2022/11/03 09:49:29;;;;;;;5.17;2.20;;;14.30;99.90;;;;;;6189945;23;20163;-87
2022/11/03 09:51:55;;;;;;;3.77;1.70;;;13.20;99.90;;;;;;6189566;23;20163;-88
2022/11/03 09:54:20;;;;;;;7.13;1.97;;;13.50;99.90;;;;;;6189533;23;20176;-87
2022/11/03 09:56:46;;;;;;;6.30;2.53;;;13.30;99.90;;;;;;6189534;23;20191;-88
2022/11/03 09:59:21;;;;;;;14.03;2.63;;;13.00;99.90;;;;;;6189532;23;20594;-86
2022/11/03 10:01:49;;;;;;;7.20;2.30;;;13.10;99.90;;;;;;6189799;23;20246;-87
2022/11/03 10:04:18;;;;;;;10.60;2.53;;;13.10;99.90;;;;;;6189381;23;20206;-87
2022/11/03 10:06:44;;;;;;;10.60;2.13;;;13.20;99.90;;;;;;6190271;23;20548;-87
2022/11/03 10:09:15;;;;;;;11.57;2.50;;;13.10;99.90;;;;;;6189545;23;20199;-86
2022/11/03 10:11:41;;;;;;;9.10;2.37;;;13.70;99.90;;;;;;6189745;23;20163;-86
2022/11/03 10:14:12;;;;;;;7.83;2.20;;;13.10;99.90;;;;;;6189571;23;20183;-88
2022/11/03 10:16:39;;;;;;;9.00;2.00;;;13.10;99.90;;;;;;6189651;23;20227;-87
2022/11/03 10:19:07;;;;;;;5.13;1.97;;;13.20;99.90;;;;;;6189542;23;20164;-85
2022/11/03 10:21:33;;;;;;;8.17;1.90;;;13.10;99.90;;;;;;6189628;23;20156;-87
2022/11/03 10:23:59;;;;;;;8.60;2.47;;;13.20;99.90;;;;;;6189321;23;20226;-88
2022/11/03 10:26:24;;;;;;;8.73;1.93;;;13.20;99.90;;;;;;6189250;23;20168;-87
2022/11/03 10:29:04;;;;;;;6.87;1.80;;;14.40;99.90;;;;;;6189502;23;20523;-86
2022/11/03 10:31:36;;;;;;;8.77;1.80;;;13.30;99.90;;;;;;6189432;23;20223;-87
2022/11/03 10:34:02;;;;;;;6.80;2.37;;;13.30;99.90;;;;;;6215945;23;20496;-86
2022/11/03 10:36:31;;;;;;;8.97;1.60;;;13.30;99.90;;;;;;6189519;23;20623;-87
2022/11/03 10:38:57;;;;;;;8.17;2.20;;;13.20;99.90;;;;;;6189456;23;20161;-86
2022/11/03 10:41:25;;;;;;;5.50;2.03;;;13.30;99.90;;;;;;6189387;23;20172;-88
2022/11/03 10:44:11;;;;;;;9.27;2.43;;;13.40;99.90;;;;;;6189247;23;20504;-86
2022/11/03 10:46:38;;;;;;;8.57;1.93;;;13.40;99.90;;;;;;6189627;23;20160;-88
2022/11/03 10:49:07;;;;;;;7.77;2.07;;;13.40;99.90;;;;;;6191628;23;20155;-86
2022/11/03 10:51:33;;;;;;;9.03;1.83;;;13.80;99.90;;;;;;6191480;23;20191;-87
2022/11/03 10:54:00;;;;;;;5.10;1.53;;;13.40;99.90;;;;;;6191577;23;20176;-89
2022/11/03 10:56:25;;;;;;;8.97;1.87;;;13.50;99.90;;;;;;6191404;23;20156;-87
2022/11/03 10:58:51;;;;;;;4.50;1.40;;;13.50;99.90;;;;;;6217972;23;20163;-87
2022/11/03 11:01:17;;;;;;;8.60;2.23;;;13.60;99.90;;;;;;6191287;23;20503;-87
2022/11/03 11:03:43;;;;;;;10.37;2.10;;;13.60;99.90;;;;;;6191524;23;20183;-87
2022/11/03 11:06:24;;;;;;;4.83;1.63;;;13.60;99.90;;;;;;6191359;23;20504;-86
2022/11/03 11:08:53;;;;;;;4.73;1.47;;;13.70;99.90;;;;;;6191521;23;20215;-88
2022/11/03 11:11:20;;;;;;;11.23;2.33;;;13.80;99.90;;;;;;6191762;23;20199;-88
2022/11/03 11:14:24;;;;;;;4.70;1.93;;;13.70;99.90;;;;;;6191312;23;20163;-86
2022/11/03 11:16:55;;;;;;;3.37;1.40;;;13.80;99.90;;;;;;6191320;23;20163;-88
2022/11/03 11:19:22;;;;;;;5.40;1.63;;;13.90;99.90;;;;;;6191389;23;20160;-87
2022/11/03 11:21:49;;;;;;;3.20;1.30;;;14.00;99.90;;;;;;6191519;23;20164;-87
2022/11/03 11:24:43;;;;;;;5.93;1.50;;;14.00;99.90;;;;;;6191390;23;20187;-87
2022/11/03 11:27:35;;;;;;;6.70;1.80;;;14.00;99.90;;;;;;6191221;23;20184;-87
2022/11/03 11:30:03;;;;;;;6.37;1.77;;;14.00;99.90;;;;;;6172081;23;20211;-87
2022/11/03 11:32:38;;;;;;;5.10;1.53;;;14.10;99.90;;;;;;6191398;23;20156;-87
2022/11/03 11:35:08;;;;;;;5.03;1.43;;;14.10;99.90;;;;;;6191800;23;20657;-87
2022/11/03 11:37:36;;;;;;;6.07;1.67;;;14.20;99.90;;;;;;6190719;23;20160;-88
2022/11/03 11:40:10;;;;;;;5.37;1.40;;;14.10;99.90;;;;;;6191130;23;20166;-88
2022/11/03 11:43:01;;;;;;;7.33;1.50;;;14.00;99.90;;;;;;6191063;23;20159;-85
2022/11/03 11:46:12;;;;;;;3.63;1.37;;;14.00;99.90;;;;;;6190798;23;20563;-89
2022/11/03 11:48:37;;;;;;;2.67;0.90;;;14.00;99.90;;;;;;6191155;23;20238;-88
2022/11/03 11:51:07;;;;;;;3.97;1.63;;;14.10;99.90;;;;;;6190816;23;20595;-85
2022/11/03 11:53:39;;;;;;;3.17;1.13;;;14.00;99.90;;;;;;6190804;23;20239;-86
2022/11/03 11:56:07;;;;;;;3.30;1.40;;;14.00;99.90;;;;;;6191010;23;20148;-86
2022/11/03 11:58:48;;;;;;;7.07;2.30;;;14.00;99.90;;;;;;6190713;23;20171;-85
2022/11/03 12:01:21;;;;;;;8.53;2.60;;;14.10;99.90;;;;;;6190795;23;20188;-87
2022/11/03 12:03:48;;;;;;;7.57;3.37;;;14.10;99.90;;;;;;6190645;23;20215;-88
2022/11/03 12:06:13;;;;;;;9.93;5.10;;;14.10;99.90;;;;;;6190983;23;20504;-87
2022/11/03 12:08:39;;;;;;;9.83;3.70;;;14.10;99.90;;;;;;6190768;23;20208;-86
2022/11/03 12:11:06;;;;;;;7.33;3.07;;;14.20;99.90;;;;;;6190849;23;20285;-87
2022/11/03 12:13:43;;;;;;;7.93;2.57;;;14.20;99.90;;;;;;6190642;23;20214;-85
2022/11/03 12:16:26;;;;;;;5.93;3.30;;;14.30;99.90;;;;;;6190737;23;20343;-85
2022/11/03 12:18:53;;;;;;;5.33;1.87;;;14.30;99.90;;;;;;6190795;23;20180;-87
2022/11/03 12:21:45;;;;;;;6.30;1.80;;;14.30;99.90;;;;;;6190775;23;20164;-87
2022/11/03 12:24:29;;;;;;;5.03;1.50;;;14.30;99.90;;;;;;6195863;23;20184;-89
2022/11/03 12:26:55;;;;;;;5.20;1.80;;;14.40;99.90;;;;;;6190498;23;20176;-87
2022/11/03 12:29:21;;;;;;;7.23;1.73;;;14.30;99.90;;;;;;6190507;23;20167;-87
2022/11/03 12:31:47;;;;;;;5.27;1.50;;;14.30;99.90;;;;;;6190645;23;20158;-87
2022/11/03 12:34:13;;;;;;;5.60;1.90;;;14.30;99.90;;;;;;6217060;23;20170;-87
2022/11/03 12:36:39;;;;;;;3.63;1.63;;;14.30;99.90;;;;;;6190423;23;20202;-87
2022/11/03 12:39:04;;;;;;;10.07;2.07;;;14.30;99.90;;;;;;6190722;23;20156;-87
2022/11/03 12:41:30;;;;;;;10.77;2.83;;;14.40;99.90;;;;;;6190540;23;20182;-87
2022/11/03 12:43:55;;;;;;;4.67;2.30;;;14.20;99.90;;;;;;6190011;23;20189;-87
2022/11/03 12:46:21;;;;;;;3.93;1.83;;;14.20;99.90;;;;;;6190191;23;20180;-86
2022/11/03 12:48:47;;;;;;;7.43;2.10;;;14.20;99.90;;;;;;6190157;23;20591;-87
2022/11/03 12:51:18;;;;;;;3.93;1.23;;;14.20;99.90;;;;;;6190120;23;20167;-87
2022/11/03 12:53:44;;;;;;;5.70;1.87;;;14.20;99.90;;;;;;6190409;23;20574;-87
2022/11/03 12:56:11;;;;;;;3.80;2.00;;;14.20;99.90;;;;;;6190196;23;20250;-86
2022/11/03 12:58:37;;;;;;;7.10;1.70;;;14.10;99.90;;;;;;6216984;23;20170;-84
2022/11/03 13:01:03;;;;;;;5.93;2.23;;;14.20;99.90;;;;;;6190310;23;20164;-86
2022/11/03 13:03:30;;;;;;;7.07;2.20;;;14.10;99.90;;;;;;6190204;23;20218;-87
2022/11/03 13:05:56;;;;;;;6.33;2.20;;;14.10;99.90;;;;;;6190022;23;20215;-86
2022/11/03 13:08:21;;;;;;;7.80;1.97;;;14.10;99.90;;;;;;6190070;23;20180;-87
2022/11/03 13:10:47;;;;;;;6.03;2.33;;;14.30;99.90;;;;;;6189855;23;20167;-86
2022/11/03 13:13:12;;;;;;;2.93;1.47;;;14.10;99.90;;;;;;6190218;23;20163;-87
2022/11/03 13:15:38;;;;;;;5.07;1.07;;;14.20;99.90;;;;;;6190062;23;20180;-86
2022/11/03 13:18:07;;;;;;;3.53;1.13;;;14.20;99.90;;;;;;6190113;23;20251;-86